Jane, Missouri
Current Conditions -  °F | °C
As of 7:35 AM on Saturday 20 Dec 2014 (Local Time) from KVBT Reporting Station
Overcast Overcast  
Wind Chill: 36°   Ceiling: 500
Heat Index: 39°   Visibility: 1.2mi
Dew Point: 37°   Wind: 5mph
Humidity: 93%   Direction: 290°WNW
Pressure: 30.24"   Gusts: NA
Location:  36.5706°N, 94.342°W
Report Text: KVBT 201335Z AUTO 29004KT 1 1/4SM OVC005 04/03 A3024 RMK AO1
Loading
Personal Weather Stations






























Interactive Weather Map New forecast layout! Learn more

10-Day Weather Forecast

Advertisements
Track Severe Weather on mobile